createdAt,value
2019-04-19T00:04:09.348Z,8.10
2019-04-19T00:09:25.118Z,7.47
2019-04-19T00:14:06.568Z,8.10
2019-04-19T00:19:38.041Z,8.43
2019-04-19T00:24:10.047Z,8.47
2019-04-19T00:29:19.027Z,7.53
2019-04-19T00:34:12.481Z,7.90
2019-04-19T00:39:51.877Z,7.43
2019-04-19T00:45:04.280Z,8.03
2019-04-19T00:50:00.254Z,7.50
2019-04-19T00:54:59.033Z,7.20
2019-04-19T00:59:51.437Z,7.47
2019-04-19T01:04:55.697Z,7.83
2019-04-19T01:10:09.918Z,7.80
2019-04-19T01:15:08.169Z,7.50
2019-04-19T01:19:59.891Z,6.87
2019-04-19T01:24:56.189Z,7.80
2019-04-19T01:29:57.814Z,7.97
2019-04-19T01:35:01.001Z,8.20
2019-04-19T01:40:13.477Z,8.50
2019-04-19T01:45:54.398Z,8.17
2019-04-19T01:51:15.028Z,8.40
2019-04-19T01:56:08.432Z,8.10
2019-04-19T02:01:03.335Z,8.80
2019-04-19T02:06:06.802Z,7.97
2019-04-19T02:11:45.248Z,7.70
2019-04-19T02:16:36.351Z,8.07
2019-04-19T02:21:40.518Z,7.30
2019-04-19T02:26:44.644Z,7.20
2019-04-19T02:32:11.856Z,7.60
2019-04-19T02:37:08.265Z,8.17
2019-04-19T02:57:37.143Z,8.73
2019-04-19T03:02:52.756Z,8.33
2019-04-19T03:07:15.481Z,9.07
2019-04-19T03:12:36.992Z,8.43
2019-04-19T03:17:34.740Z,8.50
2019-04-19T03:22:34.656Z,9.20
2019-04-19T03:27:27.579Z,7.87
2019-04-19T03:37:39.811Z,9.10
2019-04-19T03:43:04.181Z,8.60
2019-04-19T03:48:11.658Z,10.10
2019-04-19T03:53:06.903Z,9.40
2019-04-19T03:57:58.368Z,9.70
2019-04-19T04:02:52.785Z,9.40
2019-04-19T04:08:08.818Z,9.00
2019-04-19T04:13:20.460Z,8.50
2019-04-19T04:18:11.274Z,8.83
2019-04-19T04:23:16.240Z,7.83
2019-04-19T04:28:26.566Z,7.10
2019-04-19T04:33:28.750Z,10.40
2019-04-19T04:38:23.861Z,14.00
2019-04-19T04:43:31.373Z,17.83
2019-04-19T04:48:43.965Z,12.70
2019-04-19T04:53:32.070Z,9.60
2019-04-19T04:58:35.929Z,11.33
2019-04-19T05:03:51.187Z,11.70
2019-04-19T05:08:50.376Z,8.60
2019-04-19T05:13:56.340Z,10.30
2019-04-19T05:18:54.138Z,8.73
2019-04-19T05:23:59.554Z,8.70
2019-04-19T05:28:56.979Z,8.20
2019-04-19T05:33:51.738Z,8.80
2019-04-19T05:39:12.595Z,8.13
2019-04-19T05:49:19.949Z,7.93
2019-04-19T05:54:08.297Z,8.87
2019-04-19T05:59:12.730Z,10.03
2019-04-19T06:04:29.089Z,8.10
2019-04-19T06:09:09.217Z,7.90
2019-04-19T06:14:33.915Z,8.80
2019-04-19T06:19:29.812Z,7.33
2019-04-19T06:24:31.957Z,7.83
2019-04-19T06:29:38.483Z,8.60
2019-04-19T06:34:34.899Z,6.50
2019-04-19T06:39:16.349Z,8.43
2019-04-19T06:44:34.125Z,7.97
2019-04-19T06:49:22.908Z,7.80
2019-04-19T06:54:24.882Z,8.60
2019-04-19T06:59:38.108Z,8.07
2019-04-19T07:04:23.254Z,7.43
2019-04-19T07:09:50.266Z,9.07
2019-04-19T07:14:29.528Z,9.63
2019-04-19T07:19:47.011Z,9.10
2019-04-19T07:24:49.720Z,8.70
2019-04-19T07:29:29.716Z,8.40
2019-04-19T07:34:45.228Z,8.63
2019-04-19T07:40:01.364Z,9.23
2019-04-19T07:44:48.032Z,9.30
2019-04-19T07:49:55.796Z,6.60
2019-04-19T07:54:46.982Z,9.13
2019-04-19T08:00:37.586Z,9.20
2019-04-19T08:05:15.314Z,9.43
2019-04-19T08:10:24.722Z,9.67
2019-04-19T08:30:02.895Z,8.60
2019-04-19T08:35:02.972Z,9.83
2019-04-19T08:40:18.642Z,6.87
2019-04-19T08:45:04.970Z,9.63
2019-04-19T08:50:10.802Z,9.30
2019-04-19T08:55:32.967Z,8.37
2019-04-19T09:00:41.040Z,9.67
2019-04-19T09:05:27.179Z,9.33
2019-04-19T09:10:35.460Z,8.93
2019-04-19T09:15:32.768Z,9.57
2019-04-19T09:20:38.816Z,10.07
2019-04-19T09:25:45.599Z,8.57
2019-04-19T09:30:53.659Z,8.50
2019-04-19T09:35:43.532Z,9.03
2019-04-19T09:40:46.779Z,8.90
2019-04-19T09:45:40.375Z,9.07
2019-04-19T09:50:54.969Z,10.60
2019-04-19T09:56:01.737Z,9.53
2019-04-19T10:00:45.370Z,10.13
2019-04-19T10:05:45.138Z,8.70
2019-04-19T10:10:46.627Z,8.27
2019-04-19T10:15:56.606Z,8.83
2019-04-19T10:21:09.681Z,9.40
2019-04-19T10:26:14.318Z,8.20
2019-04-19T10:31:19.609Z,9.47
2019-04-19T10:36:20.534Z,9.10
2019-04-19T10:41:21.979Z,9.53
2019-04-19T10:46:22.721Z,8.57
2019-04-19T10:51:35.520Z,8.60
2019-04-19T10:56:58.592Z,9.10
2019-04-19T11:01:58.417Z,8.97
2019-04-19T11:06:59.757Z,9.53
2019-04-19T11:11:59.699Z,9.80
2019-04-19T11:16:59.724Z,7.93
2019-04-19T11:22:01.559Z,7.67
2019-04-19T11:27:01.405Z,8.80
2019-04-19T11:32:19.858Z,9.00
2019-04-19T11:37:20.099Z,9.40
2019-04-19T11:42:21.073Z,8.13
2019-04-19T11:47:23.002Z,8.23
2019-04-19T11:52:27.985Z,6.83
2019-04-19T11:57:32.578Z,6.60
2019-04-19T12:02:44.145Z,6.93
2019-04-19T12:07:44.439Z,7.67
2019-04-19T12:12:45.383Z,6.73
2019-04-19T12:17:46.178Z,6.50
2019-04-19T12:22:46.268Z,7.40
2019-04-19T12:27:46.346Z,7.47
2019-04-19T12:32:51.600Z,7.63
2019-04-19T12:37:51.404Z,8.37
2019-04-19T12:42:51.959Z,7.87
2019-04-19T12:47:53.179Z,6.97
2019-04-19T12:52:53.919Z,8.10
2019-04-19T12:57:59.943Z,8.37
2019-04-19T13:03:03.844Z,7.17
2019-04-19T13:08:03.502Z,6.77
2019-04-19T13:13:03.699Z,7.27
2019-04-19T13:18:04.387Z,5.80
2019-04-19T13:23:04.206Z,6.77
2019-04-19T13:28:04.953Z,7.03
2019-04-19T13:33:06.118Z,6.13
2019-04-19T13:38:19.155Z,6.40
2019-04-19T13:43:18.918Z,6.50
2019-04-19T13:48:18.719Z,6.00
2019-04-19T13:53:18.523Z,6.30
2019-04-19T13:58:18.282Z,5.80
2019-04-19T14:03:19.246Z,7.13
2019-04-19T14:08:21.558Z,5.27
2019-04-19T14:13:21.518Z,5.37
2019-04-19T14:18:22.341Z,5.70
2019-04-19T14:23:23.520Z,5.77
2019-04-19T14:28:23.293Z,4.90
2019-04-19T14:33:23.215Z,5.97
2019-04-19T14:38:23.606Z,5.63
2019-04-19T14:43:24.757Z,5.97
2019-04-19T14:50:34.013Z,5.00
2019-04-19T14:53:26.630Z,6.00
2019-04-19T14:58:26.495Z,5.13
2019-04-19T15:03:28.198Z,5.10
2019-04-19T15:08:28.649Z,5.87
2019-04-19T15:13:28.806Z,4.77
2019-04-19T15:18:29.783Z,4.77
2019-04-19T15:23:29.807Z,5.20
2019-04-19T15:28:30.955Z,4.80
2019-04-19T15:33:32.070Z,4.30
2019-04-19T15:38:32.204Z,4.00
2019-04-19T15:43:32.127Z,4.47
2019-04-19T15:48:37.937Z,4.77
2019-04-19T15:53:34.089Z,5.17
2019-04-19T15:58:34.318Z,4.97
2019-04-19T16:03:50.285Z,5.00
2019-04-19T16:09:12.982Z,5.00
2019-04-19T16:14:14.238Z,4.60
2019-04-19T16:19:14.658Z,3.60
2019-04-19T16:24:15.415Z,4.30
2019-04-19T16:29:25.637Z,4.13
2019-04-19T16:34:18.206Z,4.83
2019-04-19T16:39:19.333Z,3.77
2019-04-19T16:44:19.950Z,5.40
2019-04-19T16:49:20.438Z,5.50
2019-04-19T16:54:20.425Z,4.87
2019-04-19T16:59:21.730Z,5.67
2019-04-19T17:04:25.651Z,6.00
2019-04-19T17:09:24.755Z,5.77
2019-04-19T17:14:25.173Z,5.57
2019-04-19T17:19:30.739Z,5.20
2019-04-19T17:24:31.238Z,5.50
2019-04-19T17:29:31.112Z,5.60
2019-04-19T17:34:31.943Z,4.87
2019-04-19T17:39:32.845Z,5.13
2019-04-19T17:44:33.567Z,4.63
2019-04-19T17:49:34.809Z,5.90
2019-04-19T17:54:54.719Z,5.70
2019-04-19T17:59:36.356Z,5.40
2019-04-19T18:04:36.290Z,4.90
2019-04-19T18:09:37.116Z,6.20
2019-04-19T18:14:37.886Z,4.97
2019-04-19T18:19:39.923Z,5.80
2019-04-19T18:24:47.741Z,5.70
2019-04-19T18:29:40.430Z,4.83
2019-04-19T18:34:46.771Z,5.60
2019-04-19T18:39:45.553Z,4.60
2019-04-19T18:44:49.952Z,4.27
2019-04-19T18:49:47.722Z,5.07
2019-04-19T18:54:54.989Z,4.47
2019-04-19T18:59:52.605Z,5.00
2019-04-19T19:04:54.069Z,4.20
2019-04-19T19:09:55.750Z,4.40
2019-04-19T19:21:13.715Z,4.13
2019-04-19T19:26:21.336Z,4.57
2019-04-19T19:31:14.545Z,3.93
2019-04-19T19:36:21.175Z,4.57
2019-04-19T19:41:30.850Z,4.50
2019-04-19T19:46:43.085Z,4.07
2019-04-19T19:51:39.526Z,4.03
2019-04-19T19:56:53.892Z,3.67
2019-04-19T20:01:36.527Z,3.27
2019-04-19T20:06:33.254Z,3.53
2019-04-19T20:11:35.904Z,3.80
2019-04-19T20:16:36.288Z,3.90
2019-04-19T20:21:36.684Z,3.93
2019-04-19T20:26:50.203Z,4.20
2019-04-19T20:31:40.709Z,4.40
2019-04-19T20:36:42.402Z,4.40
2019-04-19T20:41:46.741Z,3.70
2019-04-19T20:46:42.308Z,3.70
2019-04-19T20:51:53.727Z,3.90
2019-04-19T20:57:27.528Z,3.83
2019-04-19T21:02:19.031Z,4.27
2019-04-19T21:07:13.598Z,4.23
2019-04-19T21:12:16.927Z,4.37
2019-04-19T21:17:12.442Z,4.47
2019-04-19T21:22:16.781Z,4.43
2019-04-19T21:27:22.580Z,3.90
2019-04-19T21:32:22.826Z,4.00
2019-04-19T21:37:24.855Z,4.33
2019-04-19T21:42:21.859Z,4.43
2019-04-19T21:47:20.399Z,3.97
2019-04-19T21:52:23.932Z,4.13
2019-04-19T21:57:27.444Z,4.00
2019-04-19T22:02:36.468Z,4.20
2019-04-19T22:07:38.113Z,3.73
2019-04-19T22:12:32.464Z,4.00
2019-04-19T22:17:32.286Z,4.20
2019-04-19T22:22:33.542Z,3.80
2019-04-19T22:27:33.722Z,4.10
2019-04-19T22:32:34.468Z,4.53
2019-04-19T22:37:36.730Z,4.07
2019-04-19T22:42:47.355Z,4.40
2019-04-19T22:47:37.659Z,4.43
2019-04-19T22:52:38.874Z,4.50
2019-04-19T22:57:45.788Z,4.07
2019-04-19T23:03:02.898Z,4.03
2019-04-19T23:08:06.063Z,4.33
2019-04-19T23:13:09.290Z,4.00
2019-04-19T23:18:14.574Z,3.67
2019-04-19T23:23:17.317Z,4.00
2019-04-19T23:28:20.886Z,3.63
2019-04-19T23:33:19.058Z,3.00
2019-04-19T23:38:20.824Z,3.50
2019-04-19T23:43:25.660Z,4.20
2019-04-19T23:48:24.993Z,4.13
2019-04-19T23:53:23.195Z,3.63
2019-04-19T23:58:28.653Z,3.43
